Cleveland, TN

1:51 AM EDT on September 03, 2014 (GMT -0400)
Dalton Municipal | Change Station
CLOSE
Current Station
Airport
Location: Dalton,
Elevation: 709 ft
Nearby Weather Stations

Elev 709 ft 34.72 °N, 84.87 °W | Updated 16 minutes ago

Thunderstorms and Rain
Thunderstorm Rain
70 °F
Feels Like 70 °F
N
0
Wind Variable Wind from North

Today
High -- | Low -- °F
--% Chance of Precip.
Yesterday
High -- | Low -- °F
Precip. -- in
7:13 AM 8:03 PM
First Quarter, 59% visible
Pressure 30.05 in
Visibility 10.0 miles
Clouds Scattered Clouds 1300 ft
Mostly Cloudy 4200 ft
Overcast 7000 ft
Dew Point 70 °F
Humidity 100%
Rainfall 0.00 in
Snow Depth Not available.
UV 0 out of 12
Pollen 9.60 out of 12
Air Quality Not available.
Flu Activity Not available.
METAR KDNN 030535Z AUTO 00000KT 10SM TSRA SCT013 BKN042 OVC070 21/21 A3005 RMK AO2 LTG DSNT ALQS

More Conditions Fewer Conditions

Pressure 30.05 in
Visibility 10.0 miles
Clouds Scattered Clouds 1300 ft
Mostly Cloudy 4200 ft
Overcast 7000 ft
Dew Point 70 °F
Humidity 100%
Rainfall 0.00 in
Snow Depth Not available.
UV 0 out of 12
Pollen 9.60 out of 12
Air Quality Not available.
Flu Activity Not available.
METAR KDNN 030535Z AUTO 00000KT 10SM TSRA SCT013 BKN042 OVC070 21/21 A3005 RMK AO2 LTG DSNT ALQS

More Conditions Fewer Conditions

10-Day Weather Forecast

Almanac

Astronomy

Sep. 03, 2014 Rise Set
Actual Time 7:13 AM EDT 8:03 PM EDT
Civil Twilight 6:47 AM EDT 8:29 PM EDT
Nautical Twilight 6:17 AM EDT 8:59 PM EDT
Astronomical Twilight 5:45 AM EDT 9:31 PM EDT
Moon 3:37 PM EDT 1:13 AM EDT
Length of Visible Light 13h 41m
Length of Day
12h 49m
Tomorrow will be 2m 8s shorter.
First Quarter, 59% of the Moon is Illuminated
Today
First Quarter
Sep 8
Full
Sep 15
Last Quarter
Sep 24
New
Oct 1
First Quarter

Today's Extremes

State Highs State Lows

Community

WunderPhotos

Upload Photos

1,749,888 photos uploaded!

Nearby

Snow Depth

Station Depth Elevation
No new snow has been reported.

Earthquake Activity

City Distance Mag. Time & Date
No recent earthquake activity has been reported nearby.
Minimum magnitude displayed is 2.5.

Coastal Water Temperatures

Place Temperature
No Stations Reporting

Nearby Weather Stations